createdAt,value
2018-07-07T00:00:45.460Z,16.22
2018-07-07T00:03:13.079Z,16.20
2018-07-07T00:05:40.694Z,16.19
2018-07-07T00:08:08.299Z,16.19
2018-07-07T00:10:35.927Z,16.19
2018-07-07T00:13:03.553Z,16.19
2018-07-07T00:15:31.192Z,16.18
2018-07-07T00:17:58.784Z,16.19
2018-07-07T00:20:26.386Z,16.17
2018-07-07T00:22:53.977Z,16.18
2018-07-07T00:25:21.949Z,16.16
2018-07-07T00:27:50.204Z,16.16
2018-07-07T00:30:18.390Z,16.12
2018-07-07T00:32:46.050Z,16.13
2018-07-07T00:35:13.713Z,16.14
2018-07-07T00:37:41.364Z,16.10
2018-07-07T00:40:10.019Z,16.13
2018-07-07T00:42:38.130Z,16.12
2018-07-07T00:45:05.763Z,16.11
2018-07-07T00:47:33.365Z,16.12
2018-07-07T00:50:01.152Z,16.08
2018-07-07T00:52:28.840Z,16.12
2018-07-07T00:54:56.556Z,16.13
2018-07-07T00:57:24.475Z,16.14
2018-07-07T00:59:52.354Z,16.14
2018-07-07T01:02:21.425Z,16.13
2018-07-07T01:04:50.749Z,16.13
2018-07-07T01:07:18.469Z,16.12
2018-07-07T01:09:46.159Z,16.14
2018-07-07T01:12:13.782Z,16.14
2018-07-07T01:14:41.451Z,16.15
2018-07-07T01:17:09.059Z,16.14
2018-07-07T01:19:36.655Z,16.14
2018-07-07T01:22:06.226Z,16.08
2018-07-07T01:24:33.800Z,16.11
2018-07-07T01:27:01.468Z,16.12
2018-07-07T01:29:29.052Z,16.09
2018-07-07T01:31:56.680Z,16.11
2018-07-07T01:34:24.314Z,16.08
2018-07-07T01:36:51.905Z,16.09
2018-07-07T01:39:19.482Z,16.04
2018-07-07T01:41:47.094Z,16.04
2018-07-07T01:44:14.670Z,16.04
2018-07-07T01:46:42.333Z,16.03
2018-07-07T01:49:09.926Z,16.03
2018-07-07T01:51:37.512Z,16.04
2018-07-07T01:54:05.166Z,16.00
2018-07-07T01:56:32.779Z,16.00
2018-07-07T01:59:00.448Z,16.01
2018-07-07T02:01:28.035Z,16.01
2018-07-07T02:03:55.693Z,16.05
2018-07-07T02:06:23.263Z,16.06
2018-07-07T02:08:50.845Z,16.04
2018-07-07T02:11:18.497Z,16.01
2018-07-07T02:13:46.092Z,16.00
2018-07-07T02:16:13.700Z,15.99
2018-07-07T02:18:41.314Z,15.96
2018-07-07T02:21:08.891Z,15.96
2018-07-07T02:23:36.478Z,15.97
2018-07-07T02:26:04.249Z,16.02
2018-07-07T02:28:31.907Z,16.03
2018-07-07T02:30:59.514Z,16.04
2018-07-07T02:33:27.126Z,16.03
2018-07-07T02:35:54.728Z,16.00
2018-07-07T02:38:22.310Z,16.00
2018-07-07T02:40:49.887Z,16.06
2018-07-07T02:43:17.996Z,16.09
2018-07-07T02:45:45.629Z,16.12
2018-07-07T02:48:13.253Z,16.11
2018-07-07T02:50:40.823Z,16.08
2018-07-07T02:53:08.473Z,16.08
2018-07-07T02:55:36.064Z,16.09
2018-07-07T02:58:03.735Z,16.12
2018-07-07T03:00:31.382Z,16.15
2018-07-07T03:02:58.957Z,16.17
2018-07-07T03:05:26.528Z,16.18
2018-07-07T03:07:54.167Z,16.16
2018-07-07T03:10:21.732Z,16.28
2018-07-07T03:12:49.286Z,16.30
2018-07-07T03:15:21.356Z,16.34
2018-07-07T03:17:49.099Z,16.38
2018-07-07T03:20:16.715Z,16.49
2018-07-07T03:22:44.315Z,16.53
2018-07-07T03:25:12.142Z,16.65
2018-07-07T03:27:39.967Z,16.62
2018-07-07T03:30:08.049Z,16.61
2018-07-07T03:32:35.849Z,16.60
2018-07-07T03:35:03.565Z,16.67
2018-07-07T03:37:31.184Z,16.72
2018-07-07T03:39:58.771Z,16.77
2018-07-07T03:42:26.345Z,17.01
2018-07-07T03:44:54.175Z,17.16
2018-07-07T03:47:21.781Z,17.18
2018-07-07T03:49:49.357Z,17.23
2018-07-07T03:52:16.966Z,17.47
2018-07-07T03:54:44.603Z,17.74
2018-07-07T03:57:12.192Z,17.56
2018-07-07T03:59:39.788Z,17.66
2018-07-07T04:02:08.249Z,17.78
2018-07-07T04:04:37.023Z,17.89
2018-07-07T04:07:05.015Z,18.10
2018-07-07T04:09:32.635Z,18.18
2018-07-07T04:12:00.223Z,18.20
2018-07-07T04:14:27.815Z,18.25
2018-07-07T04:16:55.462Z,18.38
2018-07-07T04:19:23.072Z,18.62
2018-07-07T04:21:50.660Z,18.93
2018-07-07T04:24:18.299Z,18.90
2018-07-07T04:26:45.872Z,19.18
2018-07-07T04:29:13.452Z,19.21
2018-07-07T04:31:41.048Z,19.56
2018-07-07T04:34:08.631Z,19.64
2018-07-07T04:36:36.215Z,19.92
2018-07-07T04:39:04.363Z,20.01
2018-07-07T04:41:31.938Z,20.39
2018-07-07T04:43:59.540Z,20.61
2018-07-07T04:46:27.188Z,21.05
2018-07-07T04:48:54.744Z,21.42
2018-07-07T04:51:22.327Z,21.53
2018-07-07T04:53:49.954Z,21.64
2018-07-07T04:56:17.570Z,21.09
2018-07-07T04:58:45.173Z,21.28
2018-07-07T05:01:12.811Z,21.43
2018-07-07T05:03:40.390Z,22.01
2018-07-07T05:06:08.051Z,21.88
2018-07-07T05:08:35.651Z,22.43
2018-07-07T05:11:03.292Z,22.57
2018-07-07T05:13:30.852Z,22.23
2018-07-07T05:15:58.498Z,22.12
2018-07-07T05:18:26.101Z,21.50
2018-07-07T05:20:53.689Z,21.49
2018-07-07T05:23:21.315Z,21.50
2018-07-07T05:25:48.867Z,21.69
2018-07-07T05:28:16.507Z,21.42
2018-07-07T05:30:44.127Z,21.86
2018-07-07T05:33:11.724Z,22.51
2018-07-07T05:35:39.383Z,23.30
2018-07-07T05:38:06.995Z,23.38
2018-07-07T05:40:34.585Z,23.36
2018-07-07T05:43:02.259Z,23.19
2018-07-07T05:45:29.844Z,23.17
2018-07-07T05:47:57.411Z,23.52
2018-07-07T05:50:25.052Z,24.11
2018-07-07T05:52:52.665Z,23.92
2018-07-07T05:55:20.255Z,23.53
2018-07-07T05:57:47.909Z,23.78
2018-07-07T06:00:16.007Z,24.66
2018-07-07T06:02:43.679Z,24.94
2018-07-07T06:05:11.297Z,25.08
2018-07-07T06:07:39.119Z,25.20
2018-07-07T06:10:06.931Z,25.34
2018-07-07T06:12:34.555Z,25.31
2018-07-07T06:15:02.180Z,25.74
2018-07-07T06:17:29.852Z,25.96
2018-07-07T06:19:57.403Z,26.12
2018-07-07T06:22:25.032Z,26.34
2018-07-07T06:24:52.616Z,26.37
2018-07-07T06:27:20.216Z,25.55
2018-07-07T06:29:47.837Z,24.87
2018-07-07T06:32:15.439Z,25.00
2018-07-07T06:34:43.077Z,25.27
2018-07-07T06:37:10.762Z,25.67
2018-07-07T06:39:38.284Z,26.08
2018-07-07T06:42:05.928Z,26.56
2018-07-07T06:44:33.483Z,26.83
2018-07-07T06:47:01.071Z,26.58
2018-07-07T06:49:28.704Z,26.72
2018-07-07T06:51:56.274Z,26.72
2018-07-07T06:54:23.900Z,26.47
2018-07-07T06:56:51.560Z,26.89
2018-07-07T06:59:19.171Z,26.43
2018-07-07T07:01:46.826Z,26.03
2018-07-07T07:04:14.427Z,26.22
2018-07-07T07:06:42.053Z,26.39
2018-07-07T07:09:10.377Z,26.91
2018-07-07T07:11:38.124Z,27.27
2018-07-07T07:14:05.938Z,27.61
2018-07-07T07:16:33.524Z,27.55
2018-07-07T07:19:01.119Z,27.48
2018-07-07T07:21:28.791Z,27.76
2018-07-07T07:24:03.180Z,27.16
2018-07-07T07:26:30.765Z,27.04
2018-07-07T07:28:58.403Z,26.75
2018-07-07T07:31:26.404Z,26.85
2018-07-07T07:33:54.015Z,26.94
2018-07-07T07:36:33.431Z,27.19
2018-07-07T07:39:00.983Z,27.25
2018-07-07T07:41:28.623Z,27.02
2018-07-07T07:43:56.526Z,26.68
2018-07-07T07:46:24.131Z,27.19
2018-07-07T07:48:51.724Z,26.57
2018-07-07T07:51:19.386Z,26.59
2018-07-07T07:53:47.015Z,27.08
2018-07-07T07:56:14.612Z,27.10
2018-07-07T07:58:42.296Z,27.41
2018-07-07T08:01:09.881Z,27.89
2018-07-07T08:03:37.443Z,27.86
2018-07-07T08:06:05.084Z,28.04
2018-07-07T08:08:32.681Z,28.18
2018-07-07T08:11:00.262Z,27.79
2018-07-07T08:13:27.841Z,27.55
2018-07-07T08:15:55.365Z,27.67
2018-07-07T08:18:22.988Z,27.16
2018-07-07T08:20:50.508Z,27.18
2018-07-07T08:23:18.061Z,27.44
2018-07-07T08:25:45.639Z,27.19
2018-07-07T08:28:13.177Z,27.33
2018-07-07T08:30:40.818Z,27.80
2018-07-07T08:33:08.466Z,27.40
2018-07-07T08:35:36.019Z,27.81
2018-07-07T08:38:03.598Z,28.28
2018-07-07T08:40:31.147Z,28.56
2018-07-07T08:42:58.906Z,28.56
2018-07-07T08:45:26.472Z,28.29
2018-07-07T08:47:54.047Z,27.97
2018-07-07T08:50:21.700Z,27.98
2018-07-07T08:52:49.248Z,27.87
2018-07-07T08:55:16.819Z,27.58
2018-07-07T08:57:44.390Z,27.70
2018-07-07T09:00:16.184Z,28.14
2018-07-07T09:02:43.775Z,28.49
2018-07-07T09:05:11.399Z,27.59
2018-07-07T09:07:38.956Z,27.20
2018-07-07T09:10:06.564Z,27.38
2018-07-07T09:12:34.117Z,27.79
2018-07-07T09:15:01.715Z,27.33
2018-07-07T09:17:29.302Z,27.64
2018-07-07T09:19:56.880Z,28.18
2018-07-07T09:22:24.496Z,27.69
2018-07-07T09:24:52.051Z,28.03
2018-07-07T09:27:19.639Z,28.37
2018-07-07T09:29:47.196Z,28.89
2018-07-07T09:32:14.779Z,29.32
2018-07-07T09:34:42.366Z,28.95
2018-07-07T09:37:10.016Z,28.33
2018-07-07T09:39:37.580Z,28.17
2018-07-07T09:42:05.267Z,27.88
2018-07-07T09:44:32.868Z,28.13
2018-07-07T09:47:00.407Z,28.11
2018-07-07T09:49:27.945Z,28.62
2018-07-07T09:51:55.553Z,28.27
2018-07-07T09:54:23.084Z,28.27
2018-07-07T09:56:50.863Z,27.77
2018-07-07T09:59:18.377Z,27.67
2018-07-07T10:01:45.953Z,27.19
2018-07-07T10:04:13.566Z,27.15
2018-07-07T10:06:41.155Z,27.53
2018-07-07T10:09:08.696Z,27.48
2018-07-07T10:11:36.270Z,27.00
2018-07-07T10:14:03.893Z,26.82
2018-07-07T10:16:31.457Z,26.43
2018-07-07T10:18:59.065Z,27.29
2018-07-07T10:21:26.600Z,27.64
2018-07-07T10:23:54.145Z,28.01
2018-07-07T10:26:21.708Z,28.50
2018-07-07T10:28:49.215Z,28.90
2018-07-07T10:31:16.830Z,29.20
2018-07-07T10:33:44.434Z,29.63
2018-07-07T10:36:11.981Z,29.26
2018-07-07T10:38:39.543Z,28.97
2018-07-07T10:41:07.216Z,29.60
2018-07-07T10:43:34.827Z,29.80
2018-07-07T10:46:02.508Z,29.67
2018-07-07T10:48:30.122Z,29.85
2018-07-07T10:50:57.784Z,29.85
2018-07-07T10:53:25.410Z,29.52
2018-07-07T10:55:53.037Z,29.56
2018-07-07T10:58:20.717Z,29.62
2018-07-07T11:00:48.368Z,30.28
2018-07-07T11:03:15.994Z,29.51
2018-07-07T11:05:43.632Z,28.54
2018-07-07T11:08:11.208Z,28.46
2018-07-07T11:10:38.912Z,27.49
2018-07-07T11:13:06.505Z,26.65
2018-07-07T11:15:34.140Z,26.36
2018-07-07T11:18:01.823Z,25.98
2018-07-07T11:20:29.519Z,25.93
2018-07-07T11:22:57.127Z,25.42
2018-07-07T11:25:24.798Z,25.19
2018-07-07T11:27:52.380Z,24.54
2018-07-07T11:30:20.026Z,24.32
2018-07-07T11:32:47.694Z,24.28
2018-07-07T11:35:15.277Z,24.66
2018-07-07T11:37:43.058Z,24.46
2018-07-07T11:40:10.758Z,24.28
2018-07-07T11:42:38.380Z,23.87
2018-07-07T11:45:05.987Z,23.82
2018-07-07T11:47:33.735Z,23.67
2018-07-07T11:50:01.473Z,23.74
2018-07-07T11:52:29.080Z,23.51
2018-07-07T11:54:56.724Z,23.68
2018-07-07T11:57:24.383Z,23.93
2018-07-07T11:59:52.007Z,23.86
2018-07-07T12:02:19.628Z,23.80
2018-07-07T12:04:47.303Z,24.74
2018-07-07T12:07:14.952Z,24.62
2018-07-07T12:09:42.567Z,24.24
2018-07-07T12:12:10.189Z,23.91
2018-07-07T12:14:37.828Z,23.89
2018-07-07T12:17:05.590Z,24.21
2018-07-07T12:19:33.203Z,24.51
2018-07-07T12:22:00.852Z,25.31
2018-07-07T12:24:28.648Z,25.52
2018-07-07T12:26:56.263Z,24.76
2018-07-07T12:29:23.935Z,25.10
2018-07-07T12:31:51.584Z,25.28
2018-07-07T12:34:19.186Z,24.55
2018-07-07T12:36:46.896Z,24.60
2018-07-07T12:39:14.443Z,24.97
2018-07-07T12:41:54.131Z,24.84
2018-07-07T12:44:21.744Z,25.06
2018-07-07T12:46:49.556Z,24.63
2018-07-07T12:49:17.238Z,24.46
2018-07-07T12:51:45.185Z,24.41
2018-07-07T12:54:12.826Z,24.05
2018-07-07T12:56:40.423Z,23.60
2018-07-07T12:59:08.058Z,23.86
2018-07-07T13:01:35.666Z,24.26
2018-07-07T13:04:03.306Z,24.45
2018-07-07T13:06:30.923Z,24.58
2018-07-07T13:08:58.593Z,24.89
2018-07-07T13:11:26.216Z,24.58
2018-07-07T13:13:53.940Z,24.60
2018-07-07T13:16:21.584Z,24.60
2018-07-07T13:18:49.311Z,24.63
2018-07-07T13:21:16.965Z,24.59
2018-07-07T13:23:44.648Z,24.31
2018-07-07T13:26:12.347Z,24.29
2018-07-07T13:28:39.985Z,24.41
2018-07-07T13:31:07.647Z,24.13
2018-07-07T13:33:35.294Z,23.82
2018-07-07T13:36:02.986Z,23.64
2018-07-07T13:38:35.100Z,23.43
2018-07-07T13:41:03.198Z,23.61
2018-07-07T13:43:30.812Z,23.22
2018-07-07T13:45:58.427Z,23.14
2018-07-07T13:48:26.083Z,23.48
2018-07-07T13:50:53.700Z,23.24
2018-07-07T13:53:21.363Z,23.44
2018-07-07T13:55:49.020Z,23.63
2018-07-07T13:58:16.683Z,23.68
2018-07-07T14:00:44.303Z,23.75
2018-07-07T14:03:11.970Z,23.82
2018-07-07T14:05:39.584Z,23.63
2018-07-07T14:08:07.195Z,23.85
2018-07-07T14:10:34.855Z,23.74
2018-07-07T14:13:02.445Z,23.32
2018-07-07T14:15:30.049Z,23.16
2018-07-07T14:17:57.688Z,23.40
2018-07-07T14:20:25.931Z,23.28
2018-07-07T14:22:53.506Z,23.17
2018-07-07T14:25:21.143Z,22.99
2018-07-07T14:27:48.757Z,22.64
2018-07-07T14:30:16.465Z,22.53
2018-07-07T14:32:44.239Z,22.43
2018-07-07T14:35:11.811Z,22.40
2018-07-07T14:37:39.528Z,22.33
2018-07-07T14:40:07.224Z,22.34
2018-07-07T14:42:49.437Z,22.33
2018-07-07T14:45:36.470Z,22.43
2018-07-07T14:48:04.691Z,22.46
2018-07-07T14:50:32.487Z,22.39
2018-07-07T14:53:00.087Z,22.47
2018-07-07T14:55:28.441Z,22.59
2018-07-07T14:57:56.318Z,22.51
2018-07-07T15:00:27.693Z,22.48
2018-07-07T15:02:56.369Z,22.36
2018-07-07T15:05:24.076Z,22.57
2018-07-07T15:07:51.771Z,22.70
2018-07-07T15:10:19.447Z,22.64
2018-07-07T15:12:47.706Z,22.60
2018-07-07T15:15:15.674Z,22.30
2018-07-07T15:17:44.171Z,22.17
2018-07-07T15:20:11.896Z,22.14
2018-07-07T15:22:39.661Z,22.04
2018-07-07T15:25:07.769Z,21.88
2018-07-07T15:27:35.674Z,21.91
2018-07-07T15:30:03.482Z,21.89
2018-07-07T15:32:31.165Z,21.89
2018-07-07T15:34:58.794Z,21.83
2018-07-07T15:37:26.379Z,21.75
2018-07-07T15:39:53.927Z,21.72
2018-07-07T15:42:21.561Z,21.69
2018-07-07T15:44:49.176Z,21.67
2018-07-07T15:47:16.791Z,21.66
2018-07-07T15:49:44.612Z,21.56
2018-07-07T15:52:12.232Z,21.36
2018-07-07T15:54:39.807Z,21.31
2018-07-07T15:57:07.578Z,21.20
2018-07-07T15:59:35.283Z,21.07
2018-07-07T16:02:02.908Z,21.06
2018-07-07T16:04:30.524Z,21.03
2018-07-07T16:06:58.187Z,20.94
2018-07-07T16:09:25.815Z,20.91
2018-07-07T16:11:53.470Z,20.92
2018-07-07T16:14:21.788Z,20.90
2018-07-07T16:16:49.422Z,20.93
2018-07-07T16:19:17.196Z,20.97
2018-07-07T16:21:44.794Z,21.00
2018-07-07T16:24:12.399Z,20.96
2018-07-07T16:26:40.044Z,20.91
2018-07-07T16:29:07.640Z,20.88
2018-07-07T16:31:35.242Z,20.74
2018-07-07T16:34:02.891Z,20.68
2018-07-07T16:36:30.508Z,20.60
2018-07-07T16:38:58.164Z,20.47
2018-07-07T16:41:26.025Z,20.43
2018-07-07T16:43:53.759Z,20.39
2018-07-07T16:46:21.576Z,20.37
2018-07-07T16:48:49.317Z,20.35
2018-07-07T16:51:17.023Z,20.25
2018-07-07T16:53:45.636Z,20.21
2018-07-07T16:56:13.430Z,20.07
2018-07-07T16:58:41.170Z,20.01
2018-07-07T17:01:08.887Z,20.02
2018-07-07T17:03:37.224Z,19.95
2018-07-07T17:06:04.987Z,19.96
2018-07-07T17:08:32.651Z,19.91
2018-07-07T17:11:00.577Z,19.92
2018-07-07T17:13:28.307Z,19.94
2018-07-07T17:15:55.974Z,19.99
2018-07-07T17:18:24.664Z,20.03
2018-07-07T17:20:52.367Z,20.03
2018-07-07T17:23:20.093Z,20.06
2018-07-07T17:25:48.156Z,20.07
2018-07-07T17:28:15.828Z,20.12
2018-07-07T17:30:43.527Z,20.17
2018-07-07T17:33:11.272Z,20.17
2018-07-07T17:35:38.979Z,20.18
2018-07-07T17:38:06.749Z,20.17
2018-07-07T17:40:35.131Z,20.13
2018-07-07T17:43:02.871Z,20.05
2018-07-07T17:45:31.040Z,19.96
2018-07-07T17:47:59.258Z,19.88
2018-07-07T17:50:26.943Z,19.80
2018-07-07T17:52:54.668Z,19.78
2018-07-07T17:55:23.307Z,19.74
2018-07-07T17:57:51.023Z,19.60
2018-07-07T18:00:18.739Z,19.58
2018-07-07T18:02:46.450Z,19.48
2018-07-07T18:05:14.128Z,19.46
2018-07-07T18:07:41.783Z,19.37
2018-07-07T18:10:09.406Z,19.38
2018-07-07T18:12:37.034Z,19.36
2018-07-07T18:15:05.352Z,19.35
2018-07-07T18:17:32.930Z,19.33
2018-07-07T18:20:00.628Z,19.33
2018-07-07T18:22:28.351Z,19.32
2018-07-07T18:24:56.000Z,19.30
2018-07-07T18:27:23.636Z,19.29
2018-07-07T18:29:51.227Z,19.24
2018-07-07T18:32:18.815Z,19.26
2018-07-07T18:34:46.399Z,19.20
2018-07-07T18:37:13.991Z,19.22
2018-07-07T18:39:41.684Z,19.18
2018-07-07T18:42:09.287Z,19.13
2018-07-07T18:44:36.847Z,19.10
2018-07-07T18:47:04.606Z,19.00
2018-07-07T18:49:32.231Z,18.95
2018-07-07T18:51:59.995Z,18.90
2018-07-07T18:54:27.559Z,18.84
2018-07-07T18:56:55.212Z,18.80
2018-07-07T18:59:22.799Z,18.71
2018-07-07T19:01:50.507Z,18.69
2018-07-07T19:04:18.202Z,18.65
2018-07-07T19:06:45.784Z,18.56
2018-07-07T19:09:13.446Z,18.52
2018-07-07T19:11:41.071Z,18.49
2018-07-07T19:14:08.624Z,18.44
2018-07-07T19:16:36.203Z,18.42
2018-07-07T19:19:03.856Z,18.33
2018-07-07T19:21:37.014Z,18.31
2018-07-07T19:24:10.135Z,18.25
2018-07-07T19:26:43.379Z,18.18
2018-07-07T19:29:11.183Z,18.15
2018-07-07T19:31:44.493Z,18.12
2018-07-07T19:34:17.798Z,18.11
2018-07-07T19:36:50.851Z,18.05
2018-07-07T19:39:18.472Z,18.00
2018-07-07T19:41:46.105Z,17.98
2018-07-07T19:44:13.687Z,17.94
2018-07-07T19:46:41.355Z,17.92
2018-07-07T19:49:08.979Z,17.90
2018-07-07T19:51:36.619Z,17.87
2018-07-07T19:54:04.307Z,17.83
2018-07-07T19:56:31.955Z,17.78
2018-07-07T19:58:59.514Z,17.74
2018-07-07T20:01:27.168Z,17.69
2018-07-07T20:03:54.767Z,17.63
2018-07-07T20:06:22.391Z,17.59
2018-07-07T20:08:50.119Z,17.56
2018-07-07T20:11:17.862Z,17.52
2018-07-07T20:13:45.823Z,17.48
2018-07-07T20:16:20.394Z,17.42
2018-07-07T20:19:08.815Z,17.39
2018-07-07T20:21:48.343Z,17.41
2018-07-07T20:24:17.422Z,17.38
2018-07-07T20:26:50.802Z,17.37
2018-07-07T20:29:18.631Z,17.39
2018-07-07T20:31:49.420Z,17.36
2018-07-07T20:34:19.734Z,17.31
2018-07-07T20:36:47.441Z,17.29
2018-07-07T20:39:15.176Z,17.25
2018-07-07T20:41:42.886Z,17.17
2018-07-07T20:44:11.490Z,17.13
2018-07-07T20:46:39.259Z,17.05
2018-07-07T20:49:06.990Z,17.03
2018-07-07T20:51:35.759Z,17.03
2018-07-07T20:54:03.514Z,17.04
2018-07-07T20:56:31.201Z,17.02
2018-07-07T20:58:59.378Z,17.03
2018-07-07T21:01:27.160Z,17.04
2018-07-07T21:03:54.942Z,17.05
2018-07-07T21:06:22.611Z,17.02
2018-07-07T21:08:50.441Z,17.03
2018-07-07T21:11:18.162Z,17.05
2018-07-07T21:13:46.827Z,17.05
2018-07-07T21:16:14.496Z,17.02
2018-07-07T21:18:42.232Z,17.00
2018-07-07T21:21:10.027Z,16.97
2018-07-07T21:23:38.485Z,16.91
2018-07-07T21:26:06.213Z,16.92
2018-07-07T21:28:33.995Z,16.88
2018-07-07T21:31:01.803Z,16.87
2018-07-07T21:33:29.560Z,16.85
2018-07-07T21:35:57.745Z,16.86
2018-07-07T21:38:25.432Z,16.88
2018-07-07T21:40:53.163Z,16.82
2018-07-07T21:43:20.847Z,16.85
2018-07-07T21:45:49.563Z,16.84
2018-07-07T21:48:17.232Z,16.88
2018-07-07T21:50:44.948Z,16.87
2018-07-07T21:53:12.617Z,16.84
2018-07-07T21:55:40.309Z,16.82
2018-07-07T21:58:13.571Z,16.77
2018-07-07T22:00:58.329Z,16.76
2018-07-07T22:03:31.563Z,16.76
2018-07-07T22:06:04.950Z,16.74
2018-07-07T22:08:32.622Z,16.71
2018-07-07T22:11:00.367Z,16.69
2018-07-07T22:13:28.518Z,16.71
2018-07-07T22:15:56.235Z,16.70
2018-07-07T22:18:23.945Z,16.69
2018-07-07T22:21:03.493Z,16.71
2018-07-07T22:23:31.139Z,16.67
2018-07-07T22:25:59.100Z,16.67
2018-07-07T22:28:26.747Z,16.65
2018-07-07T22:30:54.495Z,16.65
2018-07-07T22:33:23.936Z,16.63
2018-07-07T22:35:57.074Z,16.53
2018-07-07T22:38:30.288Z,16.51
2018-07-07T22:40:58.471Z,16.53
2018-07-07T22:43:26.527Z,16.53
2018-07-07T22:45:54.291Z,16.50
2018-07-07T22:48:23.201Z,16.49
2018-07-07T22:50:50.927Z,16.45
2018-07-07T22:53:19.252Z,16.51
2018-07-07T22:55:46.992Z,16.48
2018-07-07T22:58:14.975Z,16.49
2018-07-07T23:00:42.775Z,16.48
2018-07-07T23:03:11.861Z,16.43
2018-07-07T23:05:39.875Z,16.42
2018-07-07T23:08:08.005Z,16.40
2018-07-07T23:10:36.342Z,16.35
2018-07-07T23:13:04.101Z,16.38
2018-07-07T23:15:31.775Z,16.36
2018-07-07T23:17:59.905Z,16.39
2018-07-07T23:20:27.607Z,16.39
2018-07-07T23:22:55.640Z,16.38
2018-07-07T23:25:23.408Z,16.36
2018-07-07T23:27:51.434Z,16.31
2018-07-07T23:30:19.801Z,16.31
2018-07-07T23:32:48.008Z,16.26
2018-07-07T23:35:16.105Z,16.27
2018-07-07T23:37:43.741Z,16.24
2018-07-07T23:40:11.877Z,16.20
2018-07-07T23:42:40.129Z,16.13
2018-07-07T23:45:08.957Z,16.09
2018-07-07T23:47:36.691Z,16.04
2018-07-07T23:50:05.798Z,15.94
2018-07-07T23:55:08.000Z,15.84
2018-07-07T23:57:36.189Z,15.74
